Terminal Aerodrome Forecast
Issued by NWS Boston, MA

Home | Current Version | Previous Version | Text Only | Print | Product List | Glossary On
Versions: 1 2 3 4 5 6 7 8 9 10 11 12 13 14 15 16 17 18 19 20 21 22 23 24 25
000
FTUS41 KBOX 261126
TAFBOS
TAF
KBOS 261126Z 2612/2718 35004KT P6SM FEW250
     FM261400 09007KT P6SM FEW250
     FM261800 10009KT P6SM BKN050
     FM262300 14009KT P6SM BKN070
     FM270600 17007KT P6SM BKN110
     FM271100 18007KT P6SM BKN090=

USA.gov is the U.S. government's official web portal to all federal, state and local government web resources and services.